Time;durP1;ratioP1;P1;durP2;ratioP2;P2;SDS_P1;SDS_P2;PMS_P1;PMS_P2;Temp;Humidity;BMP_temperature;BMP_pressure;BME280_temperature;BME280_humidity;BME280_pressure;Samples;Min_cycle;Max_cycle;Signal;HPM_P1;HPM_P2
2022/07/20 00:01:16;;;;;;;5.00;2.55;;;;;;;;;;4906376;29;20228;-86
2022/07/20 00:03:42;;;;;;;3.17;2.67;;;;;;;;;;4899529;29;20909;-85
2022/07/20 00:06:07;;;;;;;2.83;2.60;;;;;;;;;;4900194;29;20227;-86
2022/07/20 00:11:22;;;;;;;2.95;2.70;;;;;;;;;;4909761;29;20235;-86
2022/07/20 00:13:48;;;;;;;3.20;2.90;;;;;;;;;;4895363;29;20232;-85
2022/07/20 00:16:21;;;;;;;3.42;2.80;;;;;;;;;;4901902;29;20232;-85
2022/07/20 00:18:49;;;;;;;4.18;2.90;;;;;;;;;;4905494;29;20228;-85
2022/07/20 00:21:14;;;;;;;2.80;2.60;;;;;;;;;;4905316;29;20231;-84
2022/07/20 00:23:40;;;;;;;3.80;2.42;;;;;;;;;;4900307;29;20228;-83
2022/07/20 00:26:11;;;;;;;3.22;2.92;;;;;;;;;;4911531;29;20249;-85
2022/07/20 00:28:36;;;;;;;3.08;2.78;;;;;;;;;;4872587;29;20233;-84
2022/07/20 00:31:02;;;;;;;3.28;2.80;;;;;;;;;;4897450;29;20220;-84
2022/07/20 00:33:27;;;;;;;5.00;3.03;;;;;;;;;;4899258;29;20235;-82
2022/07/20 00:35:53;;;;;;;4.38;2.80;;;;;;;;;;4886894;29;20233;-82
2022/07/20 00:38:18;;;;;;;5.57;2.90;;;;;;;;;;4927558;29;20249;-82
2022/07/20 00:40:46;;;;;;;3.13;2.83;;;;;;;;;;4938376;29;20693;-83
2022/07/20 00:43:12;;;;;;;4.63;2.85;;;;;;;;;;4892501;29;20225;-84
2022/07/20 00:45:37;;;;;;;3.60;2.83;;;;;;;;;;4906363;29;20618;-84
2022/07/20 00:48:03;;;;;;;4.45;3.03;;;;;;;;;;4911616;29;20227;-81
2022/07/20 00:50:29;;;;;;;3.28;2.78;;;;;;;;;;4895427;29;20596;-84
2022/07/20 00:52:55;;;;;;;4.15;2.80;;;;;;;;;;4870394;29;20260;-84
2022/07/20 00:55:26;;;;;;;3.53;2.55;;;;;;;;;;4881654;29;20252;-82
2022/07/20 00:57:52;;;;;;;6.35;3.08;;;;;;;;;;4910327;29;20228;-84
2022/07/20 01:00:18;;;;;;;3.22;2.50;;;;;;;;;;4877437;29;20258;-83
2022/07/20 01:02:43;;;;;;;3.33;2.70;;;;;;;;;;4896130;29;20322;-82
2022/07/20 01:05:15;;;;;;;3.47;3.10;;;;;;;;;;4909207;29;20634;-84
2022/07/20 01:07:49;;;;;;;4.05;2.70;;;;;;;;;;4904128;29;20232;-84
2022/07/20 01:10:15;;;;;;;4.00;3.03;;;;;;;;;;4884292;29;20226;-85
2022/07/20 01:12:46;;;;;;;3.80;2.88;;;;;;;;;;4893103;29;20225;-81
2022/07/20 01:15:11;;;;;;;4.65;3.13;;;;;;;;;;4933765;29;20231;-83
2022/07/20 01:17:37;;;;;;;2.90;2.60;;;;;;;;;;4919033;29;20229;-84
2022/07/20 01:20:03;;;;;;;3.83;2.90;;;;;;;;;;4888332;29;20224;-83
2022/07/20 01:22:31;;;;;;;4.30;2.72;;;;;;;;;;4904786;29;20291;-84
2022/07/20 01:24:56;;;;;;;4.18;2.90;;;;;;;;;;4898334;29;20212;-82
2022/07/20 01:27:25;;;;;;;3.58;3.00;;;;;;;;;;4911772;29;20280;-84
2022/07/20 01:29:53;;;;;;;3.10;2.80;;;;;;;;;;4922750;29;20226;-83
2022/07/20 01:32:18;;;;;;;3.83;3.00;;;;;;;;;;4913701;29;20242;-84
2022/07/20 01:34:44;;;;;;;4.68;2.90;;;;;;;;;;4912227;29;20239;-83
2022/07/20 01:37:10;;;;;;;4.68;2.60;;;;;;;;;;4896238;29;20232;-82
2022/07/20 01:39:35;;;;;;;3.13;2.90;;;;;;;;;;4872274;29;20841;-84
2022/07/20 01:42:01;;;;;;;3.78;2.70;;;;;;;;;;4910376;29;20214;-84
2022/07/20 01:44:26;;;;;;;3.60;2.63;;;;;;;;;;4907994;29;20224;-84
2022/07/20 01:46:52;;;;;;;6.72;2.80;;;;;;;;;;4892409;29;20235;-84
2022/07/20 01:49:18;;;;;;;3.63;2.83;;;;;;;;;;4881523;29;20228;-84
2022/07/20 01:51:43;;;;;;;3.97;2.83;;;;;;;;;;4903920;29;20237;-82
2022/07/20 01:54:11;;;;;;;5.28;3.00;;;;;;;;;;4919450;29;20225;-85
2022/07/20 01:56:39;;;;;;;3.22;2.67;;;;;;;;;;4887881;29;20223;-83
2022/07/20 01:59:05;;;;;;;4.35;2.80;;;;;;;;;;4891663;29;20619;-84
2022/07/20 02:01:30;;;;;;;4.53;2.70;;;;;;;;;;4885315;29;20235;-86
2022/07/20 02:03:56;;;;;;;4.90;2.90;;;;;;;;;;4889843;29;20228;-84
2022/07/20 02:06:21;;;;;;;6.18;2.97;;;;;;;;;;4886057;29;21837;-83
2022/07/20 02:08:47;;;;;;;3.42;3.03;;;;;;;;;;4890818;29;20260;-83
2022/07/20 02:11:12;;;;;;;3.72;3.13;;;;;;;;;;4903939;29;20240;-84
2022/07/20 02:13:38;;;;;;;4.32;3.22;;;;;;;;;;4903925;29;20224;-83
2022/07/20 02:16:15;;;;;;;4.75;3.10;;;;;;;;;;4903943;29;20318;-83
2022/07/20 02:18:42;;;;;;;3.95;3.00;;;;;;;;;;4911988;29;20228;-84
2022/07/20 02:21:08;;;;;;;3.90;2.97;;;;;;;;;;4888532;29;20225;-84
2022/07/20 02:23:33;;;;;;;3.05;2.78;;;;;;;;;;4894247;29;20216;-85
2022/07/20 02:26:01;;;;;;;3.20;2.88;;;;;;;;;;4919292;29;20230;-84
2022/07/20 02:28:26;;;;;;;3.92;2.72;;;;;;;;;;4898967;29;20275;-82
2022/07/20 02:30:52;;;;;;;3.15;2.70;;;;;;;;;;4899527;29;20448;-84
2022/07/20 02:33:18;;;;;;;4.50;3.08;;;;;;;;;;4888969;29;20226;-84
2022/07/20 02:35:43;;;;;;;4.20;2.80;;;;;;;;;;4912218;29;20227;-84
2022/07/20 02:38:09;;;;;;;3.78;2.90;;;;;;;;;;4895370;29;20230;-85
2022/07/20 02:40:34;;;;;;;3.88;3.08;;;;;;;;;;4903806;29;20231;-84
2022/07/20 02:43:00;;;;;;;4.47;3.40;;;;;;;;;;4890625;29;20303;-84
2022/07/20 02:45:25;;;;;;;4.70;3.17;;;;;;;;;;4901360;29;20229;-85
2022/07/20 02:47:51;;;;;;;5.35;2.97;;;;;;;;;;4893475;29;20335;-83
2022/07/20 02:50:17;;;;;;;3.83;2.78;;;;;;;;;;4904516;29;20226;-83
2022/07/20 02:52:42;;;;;;;4.22;3.20;;;;;;;;;;4913082;29;20235;-83
2022/07/20 02:55:08;;;;;;;3.47;3.10;;;;;;;;;;4919148;29;20235;-83
2022/07/20 02:57:34;;;;;;;4.65;3.35;;;;;;;;;;4886126;29;20275;-85
2022/07/20 03:00:00;;;;;;;5.57;2.95;;;;;;;;;;4909829;29;20228;-85
2022/07/20 03:02:25;;;;;;;4.30;2.97;;;;;;;;;;4907836;29;20237;-83
2022/07/20 03:04:50;;;;;;;3.33;3.05;;;;;;;;;;4908293;29;20227;-84
2022/07/20 03:07:22;;;;;;;4.38;2.92;;;;;;;;;;4901951;29;20756;-82
2022/07/20 03:09:47;;;;;;;4.25;3.45;;;;;;;;;;4885591;29;20619;-82
2022/07/20 03:12:13;;;;;;;3.53;3.13;;;;;;;;;;4884456;29;20216;-84
2022/07/20 03:14:40;;;;;;;3.47;3.17;;;;;;;;;;4901743;29;20242;-83
2022/07/20 03:17:09;;;;;;;6.47;3.15;;;;;;;;;;4905829;29;20255;-84
2022/07/20 03:19:36;;;;;;;6.57;3.40;;;;;;;;;;4909335;29;20216;-84
2022/07/20 03:22:02;;;;;;;5.28;3.25;;;;;;;;;;4897330;29;20593;-83
2022/07/20 03:24:28;;;;;;;4.78;3.13;;;;;;;;;;4900638;29;20230;-84
2022/07/20 03:26:53;;;;;;;3.22;2.92;;;;;;;;;;4862093;29;20230;-85
2022/07/20 03:29:19;;;;;;;3.40;3.10;;;;;;;;;;4893374;29;20226;-84
2022/07/20 03:31:44;;;;;;;3.40;3.10;;;;;;;;;;4884610;29;20237;-85
2022/07/20 03:34:10;;;;;;;3.38;3.08;;;;;;;;;;4888757;29;20219;-85
2022/07/20 03:36:35;;;;;;;5.35;3.40;;;;;;;;;;4904410;29;20219;-85
2022/07/20 03:39:01;;;;;;;4.95;3.17;;;;;;;;;;4898470;29;20228;-84
2022/07/20 03:41:26;;;;;;;3.58;3.15;;;;;;;;;;4913133;29;20308;-84
2022/07/20 03:43:52;;;;;;;3.42;3.10;;;;;;;;;;4892957;29;20235;-85
2022/07/20 03:46:18;;;;;;;5.90;3.35;;;;;;;;;;4891380;29;20231;-85
2022/07/20 03:48:44;;;;;;;5.65;3.70;;;;;;;;;;4916428;29;20229;-84
2022/07/20 03:51:12;;;;;;;3.78;3.40;;;;;;;;;;4888860;29;20276;-83
2022/07/20 03:53:37;;;;;;;4.95;3.33;;;;;;;;;;4901772;29;20309;-82
2022/07/20 03:56:03;;;;;;;4.53;3.47;;;;;;;;;;4920750;29;20296;-80
2022/07/20 03:58:28;;;;;;;5.63;3.80;;;;;;;;;;4922495;29;20234;-80
2022/07/20 04:00:54;;;;;;;3.80;3.25;;;;;;;;;;4929629;29;20236;-80
2022/07/20 04:03:19;;;;;;;9.88;3.58;;;;;;;;;;4913491;29;20223;-80
2022/07/20 04:05:45;;;;;;;3.95;3.30;;;;;;;;;;4910706;29;20701;-80
2022/07/20 04:08:13;;;;;;;4.03;3.55;;;;;;;;;;4892209;29;20232;-80
2022/07/20 04:10:40;;;;;;;3.45;3.15;;;;;;;;;;4891492;29;20280;-79
2022/07/20 04:13:06;;;;;;;8.45;3.38;;;;;;;;;;4911785;29;20304;-80
2022/07/20 04:15:31;;;;;;;4.13;3.40;;;;;;;;;;4899067;29;20223;-80
2022/07/20 04:17:57;;;;;;;5.00;3.47;;;;;;;;;;4888879;29;20238;-82
2022/07/20 04:20:23;;;;;;;6.57;3.50;;;;;;;;;;4922280;29;20258;-83
2022/07/20 04:22:48;;;;;;;4.15;3.65;;;;;;;;;;4898446;29;20253;-80
2022/07/20 04:25:14;;;;;;;3.80;3.40;;;;;;;;;;4879384;29;20261;-80
2022/07/20 04:27:42;;;;;;;4.97;3.67;;;;;;;;;;4930837;29;20364;-79
2022/07/20 04:30:08;;;;;;;4.03;3.50;;;;;;;;;;4906139;29;20287;-80
2022/07/20 04:32:33;;;;;;;5.82;3.53;;;;;;;;;;4844253;29;1152784;-80
2022/07/20 04:34:59;;;;;;;5.88;3.67;;;;;;;;;;4908014;29;20230;-81
2022/07/20 04:37:24;;;;;;;5.22;3.47;;;;;;;;;;4901029;29;20221;-81
2022/07/20 04:39:52;;;;;;;3.85;3.47;;;;;;;;;;4909629;29;20224;-81
2022/07/20 04:42:20;;;;;;;4.05;3.58;;;;;;;;;;4886702;29;20239;-81
2022/07/20 04:44:45;;;;;;;4.72;3.88;;;;;;;;;;4906447;29;20234;-82
2022/07/20 04:47:11;;;;;;;4.90;3.40;;;;;;;;;;4883104;29;20232;-81
2022/07/20 04:49:39;;;;;;;6.53;3.50;;;;;;;;;;4915861;29;20227;-80
2022/07/20 04:52:04;;;;;;;4.38;3.40;;;;;;;;;;4915260;29;20241;-80
2022/07/20 04:54:30;;;;;;;5.13;3.80;;;;;;;;;;4907448;29;20228;-81
2022/07/20 04:56:58;;;;;;;3.72;3.42;;;;;;;;;;4900251;29;20243;-81
2022/07/20 04:59:23;;;;;;;7.07;3.72;;;;;;;;;;4894207;29;20220;-81
2022/07/20 05:01:49;;;;;;;6.97;3.33;;;;;;;;;;4911041;29;20292;-83
2022/07/20 05:04:14;;;;;;;4.28;3.42;;;;;;;;;;4884240;29;20223;-81
2022/07/20 05:06:40;;;;;;;4.93;3.33;;;;;;;;;;4924522;29;20231;-81
2022/07/20 05:09:07;;;;;;;5.45;3.55;;;;;;;;;;4930236;29;20216;-81
2022/07/20 05:11:33;;;;;;;3.88;3.45;;;;;;;;;;4898603;29;20232;-81
2022/07/20 05:13:59;;;;;;;5.78;3.80;;;;;;;;;;4896453;29;20280;-81
2022/07/20 05:16:29;;;;;;;6.18;4.07;;;;;;;;;;4913265;29;20268;-81
2022/07/20 05:18:54;;;;;;;3.75;3.35;;;;;;;;;;4922603;29;20215;-81
2022/07/20 05:21:20;;;;;;;5.05;3.97;;;;;;;;;;4917989;29;20653;-81
2022/07/20 05:23:45;;;;;;;4.15;3.75;;;;;;;;;;4913326;29;20279;-81
2022/07/20 05:26:11;;;;;;;4.57;3.70;;;;;;;;;;4904122;29;20223;-82
2022/07/20 05:28:38;;;;;;;3.90;3.60;;;;;;;;;;4894042;29;20709;-80
2022/07/20 05:31:04;;;;;;;6.82;3.80;;;;;;;;;;4885605;29;20235;-79
2022/07/20 05:33:29;;;;;;;4.68;3.90;;;;;;;;;;4918885;29;20227;-80
2022/07/20 05:35:55;;;;;;;5.85;3.85;;;;;;;;;;4930172;29;20228;-81
2022/07/20 05:38:20;;;;;;;4.00;3.65;;;;;;;;;;4910836;29;20224;-81
2022/07/20 05:40:49;;;;;;;7.32;4.05;;;;;;;;;;4884066;29;20228;-80
2022/07/20 05:43:19;;;;;;;6.85;3.65;;;;;;;;;;4914952;29;20307;-82
2022/07/20 05:45:44;;;;;;;7.07;4.00;;;;;;;;;;4903526;29;20236;-82
2022/07/20 05:48:13;;;;;;;5.85;3.85;;;;;;;;;;4893676;29;20247;-82
2022/07/20 05:50:42;;;;;;;7.32;4.00;;;;;;;;;;4907779;29;20254;-81
2022/07/20 05:53:10;;;;;;;7.00;3.75;;;;;;;;;;4880173;29;20228;-82
2022/07/20 05:55:36;;;;;;;4.82;4.20;;;;;;;;;;4900236;29;20709;-82
2022/07/20 05:58:01;;;;;;;4.32;3.88;;;;;;;;;;4911979;29;20235;-82
2022/07/20 06:00:28;;;;;;;7.95;3.83;;;;;;;;;;4886842;29;20228;-82
2022/07/20 06:02:53;;;;;;;6.78;3.92;;;;;;;;;;4894070;29;20245;-81
2022/07/20 06:05:19;;;;;;;6.45;3.72;;;;;;;;;;4907359;29;20228;-80
2022/07/20 06:07:44;;;;;;;4.38;3.97;;;;;;;;;;4902349;29;20223;-81
2022/07/20 06:10:10;;;;;;;5.38;4.07;;;;;;;;;;4910563;29;20228;-80
2022/07/20 06:12:38;;;;;;;5.68;3.97;;;;;;;;;;4906538;29;20299;-81
2022/07/20 06:15:04;;;;;;;5.25;3.67;;;;;;;;;;4901742;29;20676;-80
2022/07/20 06:17:34;;;;;;;4.80;3.63;;;;;;;;;;4911390;29;20256;-82
2022/07/20 06:20:13;;;;;;;5.70;3.92;;;;;;;;;;4899886;29;20231;-81
2022/07/20 06:22:39;;;;;;;4.35;3.80;;;;;;;;;;4928112;29;20668;-84
2022/07/20 06:25:06;;;;;;;5.50;3.88;;;;;;;;;;4904564;29;20795;-82
2022/07/20 06:27:31;;;;;;;3.85;3.42;;;;;;;;;;4906993;29;20263;-80
2022/07/20 06:29:58;;;;;;;5.18;3.72;;;;;;;;;;4913786;29;20291;-80
2022/07/20 06:32:23;;;;;;;3.95;3.53;;;;;;;;;;4903863;29;20682;-81
2022/07/20 06:34:51;;;;;;;4.30;3.70;;;;;;;;;;4916840;29;20320;-80
2022/07/20 06:37:18;;;;;;;5.97;3.70;;;;;;;;;;4911514;29;20227;-81
2022/07/20 06:39:43;;;;;;;4.32;3.92;;;;;;;;;;4911567;29;20359;-80
2022/07/20 06:42:12;;;;;;;3.95;3.20;;;;;;;;;;4902668;29;20220;-82
2022/07/20 06:44:38;;;;;;;4.20;3.40;;;;;;;;;;4899859;29;20285;-82
2022/07/20 06:47:03;;;;;;;4.20;3.45;;;;;;;;;;4912942;29;20233;-81
2022/07/20 06:49:29;;;;;;;5.88;3.38;;;;;;;;;;4880138;29;20240;-82
2022/07/20 06:51:55;;;;;;;3.88;3.53;;;;;;;;;;4909461;29;20269;-81
2022/07/20 06:54:20;;;;;;;6.20;3.85;;;;;;;;;;4864249;29;20236;-82
2022/07/20 06:56:48;;;;;;;4.10;3.50;;;;;;;;;;4910854;29;20228;-82
2022/07/20 06:59:13;;;;;;;4.10;3.65;;;;;;;;;;4906225;29;20236;-82
2022/07/20 07:01:39;;;;;;;4.07;3.67;;;;;;;;;;4902231;29;20308;-82
2022/07/20 07:04:04;;;;;;;4.10;3.03;;;;;;;;;;4905075;29;20283;-81
2022/07/20 07:06:32;;;;;;;3.90;3.50;;;;;;;;;;4907709;29;20647;-82
2022/07/20 07:09:00;;;;;;;4.65;3.63;;;;;;;;;;4893201;29;20364;-82
2022/07/20 07:11:26;;;;;;;3.92;3.13;;;;;;;;;;4895054;29;20228;-80
2022/07/20 07:13:51;;;;;;;5.47;3.83;;;;;;;;;;4898994;29;20664;-81
2022/07/20 07:16:17;;;;;;;6.03;3.38;;;;;;;;;;4896860;29;20208;-81
2022/07/20 07:18:45;;;;;;;6.07;3.40;;;;;;;;;;4915182;29;20247;-81
2022/07/20 07:21:10;;;;;;;6.57;3.47;;;;;;;;;;4923255;29;20702;-80
2022/07/20 07:23:38;;;;;;;4.43;3.20;;;;;;;;;;4918526;29;20231;-81
2022/07/20 07:26:06;;;;;;;6.95;3.70;;;;;;;;;;4896930;29;20220;-81
2022/07/20 07:28:31;;;;;;;3.88;3.42;;;;;;;;;;4905350;29;20234;-80
2022/07/20 07:30:59;;;;;;;6.82;3.67;;;;;;;;;;4888808;29;20232;-81
2022/07/20 07:33:25;;;;;;;3.65;3.35;;;;;;;;;;4915938;29;20232;-81
2022/07/20 07:35:53;;;;;;;6.40;3.47;;;;;;;;;;4905992;29;20270;-81
2022/07/20 07:38:19;;;;;;;4.03;3.50;;;;;;;;;;4903213;29;20760;-80
2022/07/20 07:40:47;;;;;;;3.50;3.17;;;;;;;;;;4899707;29;20232;-80
2022/07/20 07:43:14;;;;;;;6.28;3.40;;;;;;;;;;4913255;29;20223;-80
2022/07/20 07:45:40;;;;;;;6.53;3.00;;;;;;;;;;4908140;29;20267;-82
2022/07/20 07:48:09;;;;;;;4.05;3.17;;;;;;;;;;4896038;29;20220;-81
2022/07/20 07:50:39;;;;;;;9.18;3.25;;;;;;;;;;4910839;29;20221;-81
2022/07/20 07:53:07;;;;;;;7.22;3.67;;;;;;;;;;4894857;29;20792;-80
2022/07/20 07:55:38;;;;;;;8.63;3.28;;;;;;;;;;4899921;29;20292;-80
2022/07/20 07:58:04;;;;;;;4.50;3.72;;;;;;;;;;4897621;29;20235;-81
2022/07/20 08:00:33;;;;;;;6.93;3.17;;;;;;;;;;4900371;29;20702;-81
2022/07/20 08:02:59;;;;;;;4.18;3.22;;;;;;;;;;4909043;29;20231;-81
2022/07/20 08:05:24;;;;;;;7.25;3.13;;;;;;;;;;4906148;29;20279;-81
2022/07/20 08:07:50;;;;;;;6.68;3.42;;;;;;;;;;4919780;29;20235;-81
2022/07/20 08:10:18;;;;;;;4.85;3.47;;;;;;;;;;4886857;29;20574;-80
2022/07/20 08:12:44;;;;;;;5.65;2.80;;;;;;;;;;4905013;29;20240;-81
2022/07/20 08:15:10;;;;;;;6.45;3.13;;;;;;;;;;4909483;29;20253;-81
2022/07/20 08:17:36;;;;;;;7.55;3.47;;;;;;;;;;4910410;29;20360;-81
2022/07/20 08:20:02;;;;;;;4.70;3.10;;;;;;;;;;4908927;29;20275;-80
2022/07/20 08:22:27;;;;;;;4.90;2.85;;;;;;;;;;4858313;29;20464;-81
2022/07/20 08:24:58;;;;;;;4.90;2.78;;;;;;;;;;4937410;29;20228;-81
2022/07/20 08:27:23;;;;;;;4.15;3.10;;;;;;;;;;4930057;29;20233;-81
2022/07/20 08:29:52;;;;;;;4.93;3.05;;;;;;;;;;4907749;29;20217;-82
2022/07/20 08:32:18;;;;;;;5.82;3.15;;;;;;;;;;4884949;29;20232;-81
2022/07/20 08:34:43;;;;;;;3.97;2.90;;;;;;;;;;4877754;29;20980;-80
2022/07/20 08:37:09;;;;;;;4.53;2.75;;;;;;;;;;4911977;29;20227;-82
2022/07/20 08:39:34;;;;;;;6.80;2.90;;;;;;;;;;4895558;29;20232;-83
2022/07/20 08:42:00;;;;;;;6.03;2.72;;;;;;;;;;4919742;29;20238;-81
2022/07/20 08:44:25;;;;;;;2.72;2.30;;;;;;;;;;4884133;29;20320;-82
2022/07/20 08:46:51;;;;;;;5.13;2.45;;;;;;;;;;4899639;29;20225;-82
2022/07/20 08:49:17;;;;;;;4.20;2.60;;;;;;;;;;4906921;29;20216;-81
2022/07/20 08:51:42;;;;;;;4.05;2.65;;;;;;;;;;4900632;29;20243;-82
2022/07/20 08:54:08;;;;;;;6.65;2.58;;;;;;;;;;4913682;29;20236;-81
2022/07/20 08:56:36;;;;;;;4.50;2.45;;;;;;;;;;4892542;29;20228;-79
2022/07/20 08:59:02;;;;;;;5.97;2.80;;;;;;;;;;4921947;29;20289;-81
2022/07/20 09:01:27;;;;;;;3.20;2.90;;;;;;;;;;4865250;29;20311;-81
2022/07/20 09:04:10;;;;;;;2.90;2.70;;;;;;;;;;4905814;29;20684;-80
2022/07/20 09:06:45;;;;;;;4.80;2.58;;;;;;;;;;4898381;29;20243;-81
2022/07/20 09:09:10;;;;;;;4.20;2.53;;;;;;;;;;4896994;29;20262;-84
2022/07/20 09:11:38;;;;;;;4.40;2.40;;;;;;;;;;4895433;29;20219;-81
2022/07/20 09:14:03;;;;;;;3.47;2.60;;;;;;;;;;4882719;29;20231;-81
2022/07/20 09:16:36;;;;;;;6.50;2.50;;;;;;;;;;4933648;29;20231;-81
2022/07/20 09:19:03;;;;;;;2.97;2.67;;;;;;;;;;4932271;29;20244;-81
2022/07/20 09:21:32;;;;;;;4.72;2.80;;;;;;;;;;4913598;29;20228;-83
2022/07/20 09:24:02;;;;;;;5.38;2.92;;;;;;;;;;4905020;29;20223;-82
2022/07/20 09:26:28;;;;;;;3.60;2.53;;;;;;;;;;4895485;29;20309;-84
2022/07/20 09:28:55;;;;;;;5.40;2.42;;;;;;;;;;4902732;29;20316;-82
2022/07/20 09:31:33;;;;;;;3.50;2.50;;;;;;;;;;4865520;29;20232;-84
2022/07/20 09:34:21;;;;;;;5.22;2.50;;;;;;;;;;4910276;29;20232;-82
2022/07/20 09:36:47;;;;;;;3.85;2.70;;;;;;;;;;4925738;29;20254;-83
2022/07/20 09:39:23;;;;;;;4.88;2.50;;;;;;;;;;4898655;29;20211;-82
2022/07/20 09:41:58;;;;;;;3.10;2.80;;;;;;;;;;4910895;29;20245;-82
2022/07/20 09:44:30;;;;;;;4.00;2.55;;;;;;;;;;4883423;29;20311;-82
2022/07/20 09:47:10;;;;;;;3.45;2.47;;;;;;;;;;4913727;29;20224;-82
2022/07/20 09:49:37;;;;;;;6.05;2.47;;;;;;;;;;4908584;29;20242;-84
2022/07/20 09:52:03;;;;;;;4.43;2.38;;;;;;;;;;4927917;29;20233;-82
2022/07/20 09:54:29;;;;;;;6.57;2.83;;;;;;;;;;4914136;29;20280;-82
2022/07/20 09:57:04;;;;;;;3.85;2.22;;;;;;;;;;4915010;29;20517;-81
2022/07/20 09:59:32;;;;;;;3.75;2.50;;;;;;;;;;4897752;29;20613;-83
2022/07/20 10:02:00;;;;;;;5.55;3.03;;;;;;;;;;4908607;29;20220;-80
2022/07/20 10:04:27;;;;;;;3.65;2.40;;;;;;;;;;4921423;29;20285;-82
2022/07/20 10:06:54;;;;;;;5.25;2.30;;;;;;;;;;4892167;29;20712;-83
2022/07/20 10:09:20;;;;;;;4.72;2.55;;;;;;;;;;4913389;29;20230;-81
2022/07/20 10:11:48;;;;;;;3.78;2.33;;;;;;;;;;4927623;29;20237;-82
2022/07/20 10:14:17;;;;;;;3.25;2.35;;;;;;;;;;4917803;29;20228;-82
2022/07/20 10:16:52;;;;;;;4.95;2.58;;;;;;;;;;4880009;29;20244;-85
2022/07/20 10:19:18;;;;;;;4.35;2.50;;;;;;;;;;4907864;29;20382;-84
2022/07/20 10:21:53;;;;;;;4.85;2.40;;;;;;;;;;4891074;29;20252;-82
2022/07/20 10:24:25;;;;;;;2.72;2.42;;;;;;;;;;4912197;29;20223;-84
2022/07/20 10:27:15;;;;;;;3.90;2.33;;;;;;;;;;4926232;29;20616;-82
2022/07/20 10:29:52;;;;;;;3.95;2.40;;;;;;;;;;4901499;29;20635;-81
2022/07/20 10:32:17;;;;;;;3.13;2.17;;;;;;;;;;4904635;29;20240;-82
2022/07/20 10:34:46;;;;;;;4.72;2.75;;;;;;;;;;4934607;29;20238;-84
2022/07/20 10:37:36;;;;;;;2.67;2.20;;;;;;;;;;4911359;29;20239;-83
2022/07/20 10:40:20;;;;;;;4.40;2.22;;;;;;;;;;4930702;29;20265;-83
2022/07/20 10:43:07;;;;;;;3.83;2.90;;;;;;;;;;4911371;29;20687;-85
2022/07/20 10:45:33;;;;;;;3.40;2.58;;;;;;;;;;4927723;29;20224;-85
2022/07/20 10:48:11;;;;;;;3.42;2.45;;;;;;;;;;4896800;29;20700;-84
2022/07/20 10:50:50;;;;;;;4.55;2.67;;;;;;;;;;4928351;29;20220;-83
2022/07/20 10:53:15;;;;;;;4.72;2.58;;;;;;;;;;4918245;29;20240;-84
2022/07/20 10:55:44;;;;;;;3.40;2.45;;;;;;;;;;4926736;29;20647;-82
2022/07/20 10:58:10;;;;;;;4.00;2.33;;;;;;;;;;4946325;29;20310;-83
2022/07/20 11:00:40;;;;;;;3.58;2.38;;;;;;;;;;4927793;29;20235;-84
2022/07/20 11:03:31;;;;;;;3.25;2.53;;;;;;;;;;4916244;29;20276;-83
2022/07/20 11:06:00;;;;;;;6.35;2.40;;;;;;;;;;4904253;29;20224;-82
2022/07/20 11:08:27;;;;;;;2.65;2.45;;;;;;;;;;4933459;29;20223;-86
2022/07/20 11:10:54;;;;;;;7.45;2.65;;;;;;;;;;4900369;29;20238;-83
2022/07/20 11:13:19;;;;;;;4.65;2.55;;;;;;;;;;4910156;29;20239;-81
2022/07/20 11:15:46;;;;;;;6.78;2.60;;;;;;;;;;4902901;29;20246;-83
2022/07/20 11:18:15;;;;;;;2.55;2.33;;;;;;;;;;4910136;29;20220;-82
2022/07/20 11:20:49;;;;;;;4.45;2.60;;;;;;;;;;4910652;29;20235;-81
2022/07/20 11:23:17;;;;;;;2.70;2.50;;;;;;;;;;4906790;29;20231;-82
2022/07/20 11:25:46;;;;;;;2.58;2.17;;;;;;;;;;4900479;29;20224;-83
2022/07/20 11:28:12;;;;;;;4.72;2.60;;;;;;;;;;4926270;29;20218;-83
2022/07/20 11:30:37;;;;;;;4.10;2.67;;;;;;;;;;4897666;29;20232;-82
2022/07/20 11:33:03;;;;;;;3.72;2.35;;;;;;;;;;4907586;29;20242;-82
2022/07/20 11:35:28;;;;;;;3.67;2.50;;;;;;;;;;4915008;29;20223;-82
2022/07/20 11:37:56;;;;;;;3.45;2.33;;;;;;;;;;4934401;29;20317;-82
2022/07/20 11:40:25;;;;;;;2.83;2.28;;;;;;;;;;4907386;29;20772;-83
2022/07/20 11:43:15;;;;;;;6.25;2.72;;;;;;;;;;4910497;29;20235;-82
2022/07/20 11:45:41;;;;;;;3.45;2.60;;;;;;;;;;4903231;29;20360;-81
2022/07/20 11:48:20;;;;;;;3.58;2.28;;;;;;;;;;4910081;29;20220;-84
2022/07/20 11:50:47;;;;;;;2.42;2.20;;;;;;;;;;4904205;29;20287;-83
2022/07/20 11:53:38;;;;;;;3.55;2.35;;;;;;;;;;4917471;29;20776;-83
2022/07/20 11:56:09;;;;;;;3.38;2.22;;;;;;;;;;4908196;29;20235;-84
2022/07/20 11:58:38;;;;;;;3.60;2.22;;;;;;;;;;4891527;29;20402;-81
2022/07/20 12:01:07;;;;;;;4.25;2.60;;;;;;;;;;4915033;29;20230;-82
2022/07/20 12:03:55;;;;;;;3.28;2.70;;;;;;;;;;4917433;29;20712;-82
2022/07/20 12:06:21;;;;;;;3.35;2.63;;;;;;;;;;4881525;29;20315;-83
2022/07/20 12:09:12;;;;;;;2.85;2.42;;;;;;;;;;4911461;29;20251;-81
2022/07/20 12:11:56;;;;;;;4.28;2.63;;;;;;;;;;4883089;29;20238;-82
2022/07/20 12:14:34;;;;;;;3.40;2.15;;;;;;;;;;4923046;29;20220;-80
2022/07/20 12:17:22;;;;;;;3.28;2.10;;;;;;;;;;4907689;29;20227;-78
2022/07/20 12:19:51;;;;;;;3.83;2.45;;;;;;;;;;4932568;29;20282;-81
2022/07/20 12:22:27;;;;;;;2.35;2.15;;;;;;;;;;4897117;29;20684;-84
2022/07/20 12:25:03;;;;;;;2.35;2.15;;;;;;;;;;4908769;29;20230;-81
2022/07/20 12:27:32;;;;;;;3.47;2.53;;;;;;;;;;4905756;29;20222;-80
2022/07/20 12:30:00;;;;;;;5.10;2.50;;;;;;;;;;4908938;29;20650;-79
2022/07/20 12:32:32;;;;;;;3.17;2.38;;;;;;;;;;4918504;29;20799;-80
2022/07/20 12:35:21;;;;;;;3.97;2.67;;;;;;;;;;4910081;29;20235;-78
2022/07/20 12:37:54;;;;;;;4.55;2.30;;;;;;;;;;4908200;29;20284;-80
2022/07/20 12:40:41;;;;;;;4.55;2.58;;;;;;;;;;4904513;29;20223;-84
2022/07/20 12:43:39;;;;;;;3.42;2.60;;;;;;;;;;4914616;29;20228;-84
2022/07/20 12:46:10;;;;;;;4.95;2.60;;;;;;;;;;4932879;29;20294;-81
2022/07/20 12:48:45;;;;;;;3.78;2.55;;;;;;;;;;4915067;29;20232;-81
2022/07/20 12:51:11;;;;;;;4.20;2.40;;;;;;;;;;4906125;29;20703;-82
2022/07/20 12:53:37;;;;;;;5.45;2.30;;;;;;;;;;4906462;29;20236;-81
2022/07/20 12:56:05;;;;;;;3.30;2.35;;;;;;;;;;4910033;29;20299;-80
2022/07/20 12:58:34;;;;;;;3.53;2.40;;;;;;;;;;4912409;29;20286;-80
2022/07/20 13:01:00;;;;;;;5.20;2.60;;;;;;;;;;4887517;29;20295;-80
2022/07/20 13:03:28;;;;;;;4.45;2.42;;;;;;;;;;4901159;29;20230;-80
2022/07/20 13:05:54;;;;;;;4.20;2.60;;;;;;;;;;4906889;29;20549;-84
2022/07/20 13:08:19;;;;;;;4.85;2.92;;;;;;;;;;4906162;29;20252;-82
2022/07/20 13:10:45;;;;;;;2.95;2.45;;;;;;;;;;4928305;29;20244;-82
2022/07/20 13:13:11;;;;;;;3.20;2.75;;;;;;;;;;4918088;29;20295;-78
2022/07/20 13:15:39;;;;;;;3.03;2.65;;;;;;;;;;4900540;29;20684;-80
2022/07/20 13:18:08;;;;;;;4.45;3.13;;;;;;;;;;4911002;29;20231;-84
2022/07/20 13:20:39;;;;;;;4.85;3.28;;;;;;;;;;4915373;29;20233;-85
2022/07/20 13:23:05;;;;;;;4.82;2.83;;;;;;;;;;4896754;29;20283;-85
2022/07/20 13:25:30;;;;;;;6.35;3.08;;;;;;;;;;4931279;29;20274;-82
2022/07/20 13:31:43;;;;;;;5.32;3.25;;;;;;;;;;4917034;29;20274;-80
2022/07/20 13:34:09;;;;;;;3.35;3.00;;;;;;;;;;4908771;29;20223;-80
2022/07/20 13:36:35;;;;;;;3.22;2.78;;;;;;;;;;4924956;29;20224;-80
2022/07/20 13:39:00;;;;;;;4.65;3.20;;;;;;;;;;4931248;29;20220;-83
2022/07/20 13:41:29;;;;;;;3.55;2.85;;;;;;;;;;4914959;29;20236;-84
2022/07/20 13:43:55;;;;;;;4.85;3.00;;;;;;;;;;4920062;29;20219;-81
2022/07/20 13:46:20;;;;;;;5.45;3.08;;;;;;;;;;4912566;29;20684;-79
2022/07/20 13:48:46;;;;;;;3.92;2.97;;;;;;;;;;4912781;29;20243;-80
2022/07/20 13:51:14;;;;;;;8.90;3.30;;;;;;;;;;4908412;29;20223;-82
2022/07/20 13:53:40;;;;;;;3.47;2.78;;;;;;;;;;4904644;29;20231;-82
2022/07/20 13:56:07;;;;;;;3.53;2.67;;;;;;;;;;4893912;29;20239;-80
2022/07/20 13:58:36;;;;;;;3.30;3.03;;;;;;;;;;4907551;29;20231;-82
2022/07/20 14:01:02;;;;;;;3.97;2.60;;;;;;;;;;4892400;29;20223;-83
2022/07/20 14:03:28;;;;;;;3.28;2.97;;;;;;;;;;4911463;29;20219;-82
2022/07/20 14:05:54;;;;;;;4.88;2.83;;;;;;;;;;4910561;29;20227;-80
2022/07/20 14:08:19;;;;;;;3.70;2.92;;;;;;;;;;4916419;29;20254;-80
2022/07/20 14:10:45;;;;;;;3.42;2.90;;;;;;;;;;4896518;29;20238;-81
2022/07/20 14:13:12;;;;;;;5.38;2.90;;;;;;;;;;4907458;29;20219;-81
2022/07/20 14:15:41;;;;;;;4.47;3.20;;;;;;;;;;4910050;29;20716;-80
2022/07/20 14:18:06;;;;;;;3.50;2.78;;;;;;;;;;4909061;29;20239;-84
2022/07/20 14:20:32;;;;;;;4.10;2.80;;;;;;;;;;4921684;29;20334;-80
2022/07/20 14:23:00;;;;;;;2.90;2.60;;;;;;;;;;4908966;29;20227;-80
2022/07/20 14:25:25;;;;;;;3.30;2.58;;;;;;;;;;4917208;29;20256;-82
2022/07/20 14:27:51;;;;;;;4.75;2.97;;;;;;;;;;4924444;29;20227;-83
2022/07/20 14:30:19;;;;;;;3.17;2.88;;;;;;;;;;4907240;29;20228;-83
2022/07/20 14:32:44;;;;;;;3.33;3.00;;;;;;;;;;4913217;29;20239;-81
2022/07/20 14:35:10;;;;;;;3.80;3.10;;;;;;;;;;4902988;29;20318;-82
2022/07/20 14:37:38;;;;;;;3.70;2.95;;;;;;;;;;4888709;29;20222;-80
2022/07/20 14:40:05;;;;;;;11.70;3.47;;;;;;;;;;4907275;29;20269;-82
2022/07/20 14:42:30;;;;;;;4.80;2.85;;;;;;;;;;4914116;29;20223;-83
2022/07/20 14:44:56;;;;;;;4.57;2.95;;;;;;;;;;4885172;29;20235;-81
2022/07/20 14:47:24;;;;;;;4.00;2.95;;;;;;;;;;4921593;29;20224;-82
2022/07/20 14:49:52;;;;;;;3.22;2.88;;;;;;;;;;4912620;29;20224;-80
2022/07/20 14:52:18;;;;;;;4.03;2.75;;;;;;;;;;4926728;29;20231;-80
2022/07/20 14:54:46;;;;;;;4.75;3.20;;;;;;;;;;4918348;29;20219;-84